createdAt,value
2019-02-25T00:01:30.259Z,5.10
2019-02-25T00:04:00.692Z,5.22
2019-02-25T00:06:31.131Z,5.07
2019-02-25T00:09:01.552Z,5.37
2019-02-25T00:11:32.004Z,5.50
2019-02-25T00:14:02.427Z,5.53
2019-02-25T00:16:33.055Z,4.87
2019-02-25T00:19:03.487Z,5.57
2019-02-25T00:21:33.904Z,5.60
2019-02-25T00:24:04.356Z,4.93
2019-02-25T00:26:34.809Z,5.13
2019-02-25T00:29:05.233Z,4.70
2019-02-25T00:31:35.696Z,5.20
2019-02-25T00:34:06.238Z,5.27
2019-02-25T00:36:36.680Z,5.37
2019-02-25T00:39:08.630Z,4.87
2019-02-25T00:41:39.060Z,4.93
2019-02-25T00:44:09.551Z,5.33
2019-02-25T00:46:40.021Z,4.73
2019-02-25T00:49:10.459Z,5.37
2019-02-25T00:51:40.987Z,5.10
2019-02-25T00:54:11.427Z,5.60
2019-02-25T00:56:41.906Z,5.43
2019-02-25T00:59:12.366Z,5.00
2019-02-25T01:01:42.821Z,4.93
2019-02-25T01:04:13.263Z,4.77
2019-02-25T01:06:43.713Z,4.80
2019-02-25T01:09:14.249Z,5.37
2019-02-25T01:11:44.701Z,5.63
2019-02-25T01:14:15.173Z,4.77
2019-02-25T01:16:45.638Z,4.80
2019-02-25T01:19:16.080Z,4.47
2019-02-25T01:21:46.534Z,4.40
2019-02-25T01:24:17.046Z,5.10
2019-02-25T01:26:47.535Z,4.43
2019-02-25T01:29:17.991Z,4.67
2019-02-25T01:31:48.484Z,4.20
2019-02-25T01:34:18.918Z,4.90
2019-02-25T01:36:49.415Z,5.03
2019-02-25T01:39:19.848Z,4.40
2019-02-25T01:41:50.323Z,5.20
2019-02-25T01:44:20.781Z,4.90
2019-02-25T01:46:51.279Z,5.57
2019-02-25T01:49:21.805Z,5.33
2019-02-25T01:51:52.236Z,5.17
2019-02-25T01:54:22.704Z,5.07
2019-02-25T01:56:53.163Z,5.23
2019-02-25T01:59:23.596Z,5.40
2019-02-25T02:01:54.048Z,5.30
2019-02-25T02:04:24.691Z,5.90
2019-02-25T02:06:55.192Z,5.27
2019-02-25T02:09:25.785Z,5.60
2019-02-25T02:11:56.208Z,6.17
2019-02-25T02:14:26.631Z,5.67
2019-02-25T02:16:57.081Z,5.87
2019-02-25T02:19:27.529Z,5.73
2019-02-25T02:21:57.986Z,5.43
2019-02-25T02:24:28.485Z,5.27
2019-02-25T02:26:58.949Z,5.50
2019-02-25T02:29:29.386Z,6.03
2019-02-25T02:31:59.865Z,5.07
2019-02-25T02:34:30.421Z,4.47
2019-02-25T02:37:00.878Z,5.20
2019-02-25T02:39:31.290Z,4.90
2019-02-25T02:42:17.126Z,5.17
2019-02-25T02:45:00.397Z,5.30
2019-02-25T02:48:07.913Z,5.53
2019-02-25T02:50:38.387Z,4.93
2019-02-25T02:53:08.807Z,5.67
2019-02-25T02:55:39.303Z,4.80
2019-02-25T02:58:09.722Z,5.00
2019-02-25T03:00:40.174Z,5.37
2019-02-25T03:03:10.603Z,4.77
2019-02-25T03:05:41.056Z,5.17
2019-02-25T03:08:11.508Z,5.00
2019-02-25T03:10:42.007Z,5.87
2019-02-25T03:13:12.432Z,5.30
2019-02-25T03:15:42.933Z,5.10
2019-02-25T03:18:13.356Z,4.93
2019-02-25T03:20:43.785Z,5.27
2019-02-25T03:23:14.260Z,5.60
2019-02-25T03:25:44.692Z,5.13
2019-02-25T03:28:15.175Z,4.80
2019-02-25T03:30:45.630Z,5.70
2019-02-25T03:33:16.076Z,5.67
2019-02-25T03:35:46.511Z,5.90
2019-02-25T03:38:16.969Z,5.90
2019-02-25T03:40:47.428Z,5.33
2019-02-25T03:43:17.855Z,5.60
2019-02-25T03:45:48.363Z,5.80
2019-02-25T03:48:18.836Z,5.50
2019-02-25T03:50:49.331Z,5.13
2019-02-25T03:53:19.782Z,5.40
2019-02-25T03:55:50.415Z,4.60
2019-02-25T03:58:20.914Z,4.47
2019-02-25T04:00:51.562Z,5.50
2019-02-25T04:03:21.991Z,5.57
2019-02-25T04:05:52.464Z,5.53
2019-02-25T04:08:22.929Z,5.33
2019-02-25T04:10:53.373Z,5.63
2019-02-25T04:13:23.910Z,5.07
2019-02-25T04:15:54.474Z,5.00
2019-02-25T04:18:24.924Z,5.00
2019-02-25T04:20:55.350Z,5.13
2019-02-25T04:23:25.791Z,5.13
2019-02-25T04:25:56.210Z,4.80
2019-02-25T04:28:26.713Z,4.70
2019-02-25T04:30:57.157Z,4.90
2019-02-25T04:33:27.598Z,5.27
2019-02-25T04:35:58.058Z,5.57
2019-02-25T04:38:28.482Z,5.40
2019-02-25T04:40:58.948Z,4.93
2019-02-25T04:43:29.515Z,5.17
2019-02-25T04:45:59.925Z,5.80
2019-02-25T04:48:30.364Z,5.37
2019-02-25T04:51:00.820Z,5.23
2019-02-25T04:53:31.280Z,5.07
2019-02-25T04:56:01.761Z,5.33
2019-02-25T04:58:32.168Z,5.92
2019-02-25T05:01:02.694Z,5.87
2019-02-25T05:03:33.118Z,5.70
2019-02-25T05:06:03.533Z,5.60
2019-02-25T05:08:33.984Z,5.30
2019-02-25T05:11:04.431Z,5.13
2019-02-25T05:13:34.892Z,5.43
2019-02-25T05:16:05.372Z,6.10
2019-02-25T05:18:36.029Z,5.60
2019-02-25T05:21:07.939Z,5.43
2019-02-25T05:23:38.354Z,4.63
2019-02-25T05:26:08.918Z,5.27
2019-02-25T05:28:39.396Z,5.80
2019-02-25T05:31:09.853Z,5.53
2019-02-25T05:33:40.358Z,5.47
2019-02-25T05:36:10.833Z,5.07
2019-02-25T05:38:41.252Z,5.13
2019-02-25T05:41:11.702Z,6.60
2019-02-25T05:43:42.257Z,6.97
2019-02-25T05:46:12.720Z,8.60
2019-02-25T05:48:43.158Z,8.20
2019-02-25T05:51:13.631Z,8.43
2019-02-25T05:53:44.065Z,10.17
2019-02-25T05:56:15.637Z,9.20
2019-02-25T05:58:46.121Z,8.50
2019-02-25T06:01:16.544Z,8.13
2019-02-25T06:03:47.044Z,7.92
2019-02-25T06:06:17.487Z,8.10
2019-02-25T06:08:48.013Z,8.45
2019-02-25T06:11:18.541Z,8.67
2019-02-25T06:13:49.080Z,7.90
2019-02-25T06:16:19.597Z,6.50
2019-02-25T06:18:50.170Z,6.73
2019-02-25T06:21:20.612Z,6.27
2019-02-25T06:23:51.130Z,6.87
2019-02-25T06:26:23.611Z,7.40
2019-02-25T06:28:54.052Z,6.67
2019-02-25T06:31:24.661Z,7.43
2019-02-25T06:33:55.109Z,6.63
2019-02-25T06:36:25.782Z,7.23
2019-02-25T06:38:56.277Z,6.93
2019-02-25T06:41:26.686Z,6.30
2019-02-25T06:43:57.151Z,5.90
2019-02-25T06:46:27.567Z,6.10
2019-02-25T06:48:57.987Z,6.43
2019-02-25T06:51:28.480Z,6.43
2019-02-25T06:53:58.931Z,6.37
2019-02-25T06:56:29.349Z,6.50
2019-02-25T06:58:59.831Z,6.23
2019-02-25T07:01:30.307Z,6.57
2019-02-25T07:04:25.835Z,6.00
2019-02-25T07:07:06.162Z,5.47
2019-02-25T07:09:55.540Z,6.47
2019-02-25T07:12:40.195Z,6.90
2019-02-25T07:15:47.958Z,7.07
2019-02-25T07:18:25.453Z,6.87
2019-02-25T07:21:02.653Z,5.80
2019-02-25T07:23:54.843Z,6.50
2019-02-25T07:26:47.933Z,6.20
2019-02-25T07:29:38.115Z,6.47
2019-02-25T07:32:35.607Z,6.08
2019-02-25T07:35:14.898Z,7.23
2019-02-25T07:37:59.011Z,7.90
2019-02-25T07:40:40.248Z,7.30
2019-02-25T07:43:29.628Z,7.80
2019-02-25T07:46:24.846Z,7.60
2019-02-25T07:49:19.143Z,7.77
2019-02-25T07:51:55.927Z,7.77
2019-02-25T07:54:45.336Z,6.77
2019-02-25T07:57:24.996Z,8.10
2019-02-25T08:00:29.827Z,7.70
2019-02-25T08:03:22.208Z,8.57
2019-02-25T08:06:12.013Z,7.60
2019-02-25T08:09:00.336Z,7.93
2019-02-25T08:11:53.531Z,8.10
2019-02-25T08:14:41.516Z,7.90
2019-02-25T08:17:30.897Z,8.53
2019-02-25T08:20:20.281Z,8.97
2019-02-25T08:23:08.239Z,9.50
2019-02-25T08:26:09.851Z,9.97
2019-02-25T08:28:58.160Z,10.28
2019-02-25T08:31:46.431Z,10.43
2019-02-25T08:34:48.004Z,11.30
2019-02-25T08:37:59.529Z,10.53
2019-02-25T08:41:23.586Z,9.93
2019-02-25T08:44:22.115Z,10.23
2019-02-25T08:47:15.563Z,9.93
2019-02-25T08:49:51.884Z,10.20
2019-02-25T08:52:22.355Z,9.53
2019-02-25T08:54:52.913Z,10.43
2019-02-25T08:57:23.545Z,10.30
2019-02-25T08:59:54.154Z,9.83
2019-02-25T09:02:24.627Z,10.10
2019-02-25T09:04:55.098Z,9.40
2019-02-25T09:07:25.612Z,9.47
2019-02-25T09:09:56.112Z,9.97
2019-02-25T09:12:26.569Z,9.17
2019-02-25T09:14:57.005Z,8.80
2019-02-25T09:17:27.453Z,10.40
2019-02-25T09:19:57.962Z,10.50
2019-02-25T09:22:28.422Z,9.93
2019-02-25T09:24:58.899Z,9.10
2019-02-25T09:27:29.366Z,9.50
2019-02-25T09:29:59.941Z,9.50
2019-02-25T09:32:30.379Z,9.53
2019-02-25T09:35:00.906Z,9.70
2019-02-25T09:37:31.372Z,8.27
2019-02-25T09:40:01.800Z,9.43
2019-02-25T09:42:32.336Z,9.50
2019-02-25T09:45:03.260Z,9.43
2019-02-25T09:47:33.734Z,9.67
2019-02-25T09:50:04.402Z,9.90
2019-02-25T09:52:34.971Z,10.00
2019-02-25T09:55:05.684Z,9.30
2019-02-25T09:57:36.135Z,9.20
2019-02-25T10:00:08.918Z,8.97
2019-02-25T10:02:39.392Z,8.93
2019-02-25T10:05:10.077Z,10.40
2019-02-25T10:07:40.560Z,8.60
2019-02-25T10:10:13.403Z,8.17
2019-02-25T10:12:43.902Z,8.40
2019-02-25T10:15:15.563Z,8.80
2019-02-25T10:17:46.039Z,8.60
2019-02-25T10:20:16.471Z,9.27
2019-02-25T10:22:46.940Z,8.87
2019-02-25T10:25:17.389Z,7.77
2019-02-25T10:27:49.584Z,8.33
2019-02-25T10:30:20.544Z,7.70
2019-02-25T10:32:51.075Z,7.10
2019-02-25T10:35:21.824Z,7.30
2019-02-25T10:37:52.293Z,7.23
2019-02-25T10:40:26.861Z,6.97
2019-02-25T10:42:55.065Z,6.93
2019-02-25T10:45:25.683Z,7.03
2019-02-25T10:47:58.685Z,7.57
2019-02-25T10:50:28.842Z,6.90
2019-02-25T10:53:03.482Z,7.67
2019-02-25T10:55:37.434Z,7.17
2019-02-25T10:58:09.261Z,7.80
2019-02-25T11:00:41.613Z,7.37
2019-02-25T11:03:12.852Z,7.40
2019-02-25T11:05:44.201Z,7.27
2019-02-25T11:08:16.560Z,6.73
2019-02-25T11:11:06.660Z,6.47
2019-02-25T11:13:37.180Z,6.60
2019-02-25T11:16:09.719Z,7.03
2019-02-25T11:18:40.603Z,7.47
2019-02-25T11:21:11.297Z,6.43
2019-02-25T11:23:43.463Z,7.20
2019-02-25T11:26:14.096Z,6.93
2019-02-25T11:28:44.607Z,6.57
2019-02-25T11:31:17.121Z,7.17
2019-02-25T11:33:47.432Z,7.00
2019-02-25T11:36:20.143Z,5.80
2019-02-25T11:38:50.210Z,6.23
2019-02-25T11:41:20.751Z,6.10
2019-02-25T11:43:52.859Z,5.87
2019-02-25T11:46:25.039Z,6.33
2019-02-25T11:48:55.749Z,6.30
2019-02-25T11:51:27.327Z,6.20
2019-02-25T11:53:59.448Z,6.23
2019-02-25T11:56:31.202Z,6.13
2019-02-25T11:59:01.973Z,6.43
2019-02-25T12:01:32.493Z,6.40
2019-02-25T12:04:03.054Z,6.17
2019-02-25T12:06:33.595Z,5.50
2019-02-25T12:09:04.435Z,5.70
2019-02-25T12:11:34.918Z,5.80
2019-02-25T12:14:05.475Z,5.43
2019-02-25T12:16:35.955Z,4.90
2019-02-25T12:19:06.473Z,4.63
2019-02-25T12:21:37.041Z,4.93
2019-02-25T12:24:07.538Z,5.10
2019-02-25T12:26:38.020Z,5.37
2019-02-25T12:29:10.910Z,5.47
2019-02-25T12:31:40.763Z,4.63
2019-02-25T12:34:11.252Z,4.00
2019-02-25T12:36:41.768Z,4.40
2019-02-25T12:39:12.301Z,4.50
2019-02-25T12:41:42.805Z,4.40
2019-02-25T12:44:13.403Z,4.30
2019-02-25T12:46:43.965Z,4.83
2019-02-25T12:49:14.449Z,4.90
2019-02-25T12:51:44.950Z,4.33
2019-02-25T12:54:15.449Z,4.93
2019-02-25T12:56:45.942Z,4.23
2019-02-25T12:59:17.779Z,4.60
2019-02-25T13:01:48.268Z,4.53
2019-02-25T13:04:18.760Z,5.40
2019-02-25T13:06:49.298Z,4.47
2019-02-25T13:09:19.800Z,4.70
2019-02-25T13:11:50.350Z,4.87
2019-02-25T13:14:20.805Z,4.50
2019-02-25T13:16:51.288Z,4.60
2019-02-25T13:19:21.798Z,4.70
2019-02-25T13:21:52.420Z,4.73
2019-02-25T13:24:22.941Z,4.40
2019-02-25T13:26:53.499Z,4.80
2019-02-25T13:29:23.988Z,4.57
2019-02-25T13:31:54.584Z,4.10
2019-02-25T13:34:25.087Z,5.37
2019-02-25T13:36:55.595Z,5.20
2019-02-25T13:39:26.385Z,4.87
2019-02-25T13:41:57.091Z,5.17
2019-02-25T13:44:27.544Z,4.90
2019-02-25T13:46:58.031Z,5.03
2019-02-25T13:49:28.487Z,5.40
2019-02-25T13:51:58.971Z,5.77
2019-02-25T13:54:29.637Z,5.00
2019-02-25T13:57:00.081Z,5.07
2019-02-25T13:59:30.608Z,5.63
2019-02-25T14:02:01.045Z,5.23
2019-02-25T14:04:31.532Z,5.73
2019-02-25T14:07:02.026Z,5.30
2019-02-25T14:09:35.375Z,5.47
2019-02-25T14:12:06.027Z,6.13
2019-02-25T14:14:36.560Z,5.30
2019-02-25T14:17:07.094Z,5.67
2019-02-25T14:19:37.576Z,5.80
2019-02-25T14:22:08.136Z,5.63
2019-02-25T14:24:40.477Z,6.27
2019-02-25T14:27:11.796Z,6.83
2019-02-25T14:29:44.671Z,6.90
2019-02-25T14:32:15.688Z,6.77
2019-02-25T14:34:46.484Z,6.40
2019-02-25T14:37:20.690Z,7.20
2019-02-25T14:39:53.742Z,6.87
2019-02-25T14:42:25.904Z,6.73
2019-02-25T14:44:58.272Z,6.87
2019-02-25T14:47:34.809Z,6.90
2019-02-25T14:50:00.827Z,7.30
2019-02-25T14:52:31.807Z,7.33
2019-02-25T14:55:04.768Z,6.37
2019-02-25T14:57:35.612Z,7.13
2019-02-25T15:00:10.991Z,6.93
2019-02-25T15:02:43.520Z,7.27
2019-02-25T15:05:15.190Z,6.93
2019-02-25T15:07:46.763Z,6.20
2019-02-25T15:10:18.036Z,6.37
2019-02-25T15:12:48.509Z,6.60
2019-02-25T15:15:19.633Z,6.50
2019-02-25T15:17:51.017Z,6.40
2019-02-25T15:20:24.090Z,6.87
2019-02-25T15:22:55.673Z,6.83
2019-02-25T15:25:29.171Z,6.63
2019-02-25T15:27:58.410Z,7.07
2019-02-25T15:30:30.692Z,7.13
2019-02-25T15:33:01.602Z,6.43
2019-02-25T15:35:34.569Z,6.10
2019-02-25T15:38:04.377Z,6.43
2019-02-25T15:40:34.850Z,6.97
2019-02-25T15:43:15.157Z,7.33
2019-02-25T15:45:43.693Z,7.23
2019-02-25T15:48:23.606Z,6.93
2019-02-25T15:50:57.952Z,7.10
2019-02-25T15:53:28.793Z,7.77
2019-02-25T15:56:01.407Z,7.60
2019-02-25T15:58:31.649Z,7.40
2019-02-25T16:01:02.314Z,7.40
2019-02-25T16:03:35.030Z,7.80
2019-02-25T16:06:08.400Z,9.00
2019-02-25T16:08:39.986Z,8.63
2019-02-25T16:11:11.968Z,8.27
2019-02-25T16:13:42.996Z,8.00
2019-02-25T16:16:14.233Z,9.17
2019-02-25T16:18:44.805Z,8.70
2019-02-25T16:21:15.244Z,9.07
2019-02-25T16:23:45.834Z,8.37
2019-02-25T16:26:18.268Z,8.70
2019-02-25T16:28:50.359Z,8.37
2019-02-25T16:31:20.764Z,8.60
2019-02-25T16:33:53.003Z,9.17
2019-02-25T16:36:24.434Z,8.60
2019-02-25T16:38:58.080Z,7.70
2019-02-25T16:41:32.156Z,9.03
2019-02-25T16:44:01.989Z,8.60
2019-02-25T16:46:36.539Z,8.43
2019-02-25T16:49:05.096Z,8.97
2019-02-25T16:51:37.553Z,8.93
2019-02-25T16:54:11.098Z,8.33
2019-02-25T16:56:40.433Z,8.33
2019-02-25T16:59:11.824Z,8.93
2019-02-25T17:01:43.365Z,8.70
2019-02-25T17:04:14.345Z,8.77
2019-02-25T17:06:46.281Z,9.47
2019-02-25T17:09:22.703Z,10.67
2019-02-25T17:11:53.474Z,11.30
2019-02-25T17:14:29.292Z,9.07
2019-02-25T17:16:59.960Z,9.10
2019-02-25T17:20:12.960Z,8.70
2019-02-25T17:22:54.016Z,8.97
2019-02-25T17:25:26.921Z,8.83
2019-02-25T17:27:56.978Z,8.67
2019-02-25T17:30:27.586Z,8.73
2019-02-25T17:32:58.134Z,10.47
2019-02-25T17:35:30.664Z,9.10
2019-02-25T17:38:02.600Z,9.60
2019-02-25T17:40:43.598Z,9.17
2019-02-25T17:43:23.837Z,8.43
2019-02-25T17:46:12.035Z,8.80
2019-02-25T17:48:46.006Z,8.80
2019-02-25T17:51:18.443Z,8.97
2019-02-25T17:53:50.241Z,8.47
2019-02-25T17:56:37.592Z,8.83
2019-02-25T17:59:11.619Z,9.13
2019-02-25T18:01:42.532Z,8.77
2019-02-25T18:04:14.910Z,9.43
2019-02-25T18:06:45.494Z,8.47
2019-02-25T18:09:20.453Z,8.73
2019-02-25T18:11:51.812Z,9.50
2019-02-25T18:14:24.211Z,8.57
2019-02-25T18:16:55.001Z,8.83
2019-02-25T18:19:27.144Z,9.50
2019-02-25T18:21:58.792Z,10.00
2019-02-25T18:24:29.503Z,9.43
2019-02-25T18:27:00.104Z,9.07
2019-02-25T18:29:30.834Z,9.23
2019-02-25T18:32:02.170Z,8.57
2019-02-25T18:34:34.858Z,10.23
2019-02-25T18:37:07.202Z,9.90
2019-02-25T18:39:38.522Z,9.00
2019-02-25T18:42:11.251Z,9.47
2019-02-25T18:44:42.775Z,10.47
2019-02-25T18:47:13.887Z,9.73
2019-02-25T18:49:44.471Z,9.93
2019-02-25T18:52:15.501Z,8.87
2019-02-25T18:54:47.403Z,10.00
2019-02-25T18:57:18.925Z,10.27
2019-02-25T18:59:50.399Z,9.70
2019-02-25T19:02:21.108Z,8.73
2019-02-25T19:04:51.836Z,10.03
2019-02-25T19:07:24.743Z,9.80
2019-02-25T19:09:56.056Z,9.90
2019-02-25T19:12:27.411Z,10.07
2019-02-25T19:14:59.816Z,10.03
2019-02-25T19:17:31.920Z,9.90
2019-02-25T19:20:02.612Z,11.07
2019-02-25T19:22:35.102Z,10.20
2019-02-25T19:25:09.406Z,10.50
2019-02-25T19:27:38.984Z,9.93
2019-02-25T19:30:10.159Z,9.80
2019-02-25T19:32:40.727Z,9.70
2019-02-25T19:35:12.071Z,10.57
2019-02-25T19:37:44.443Z,11.30
2019-02-25T19:40:19.558Z,10.90
2019-02-25T19:42:51.597Z,11.73
2019-02-25T19:45:22.791Z,11.43
2019-02-25T19:47:55.324Z,12.50
2019-02-25T19:50:27.706Z,11.10
2019-02-25T19:53:02.529Z,13.30
2019-02-25T19:55:31.052Z,11.77
2019-02-25T19:58:01.960Z,11.43
2019-02-25T20:00:33.854Z,12.47
2019-02-25T20:03:06.233Z,11.80
2019-02-25T20:05:41.187Z,10.43
2019-02-25T20:08:09.197Z,10.50
2019-02-25T20:10:39.747Z,10.53
2019-02-25T20:13:10.272Z,9.43
2019-02-25T20:15:42.430Z,10.67
2019-02-25T20:18:13.911Z,11.07
2019-02-25T20:20:51.261Z,10.73
2019-02-25T20:23:24.932Z,10.63
2019-02-25T20:25:57.647Z,9.13
2019-02-25T20:28:27.944Z,8.93
2019-02-25T20:30:58.492Z,10.50
2019-02-25T20:33:31.861Z,9.83
2019-02-25T20:36:03.213Z,9.13
2019-02-25T20:38:34.819Z,9.60
2019-02-25T20:41:06.043Z,9.17
2019-02-25T20:43:39.478Z,9.33
2019-02-25T20:46:10.047Z,9.57
2019-02-25T20:48:44.511Z,9.73
2019-02-25T20:51:12.865Z,10.17
2019-02-25T20:53:43.369Z,8.60
2019-02-25T20:56:13.919Z,9.77
2019-02-25T20:58:45.135Z,10.83
2019-02-25T21:01:16.865Z,10.13
2019-02-25T21:03:50.430Z,9.60
2019-02-25T21:06:21.420Z,9.53
2019-02-25T21:08:51.998Z,9.93
2019-02-25T21:11:24.734Z,9.13
2019-02-25T21:13:55.362Z,9.13
2019-02-25T21:16:28.387Z,9.97
2019-02-25T21:18:59.069Z,8.67
2019-02-25T21:21:30.764Z,9.03
2019-02-25T21:24:04.212Z,9.07
2019-02-25T21:26:36.153Z,9.30
2019-02-25T21:29:07.086Z,9.63
2019-02-25T21:31:42.808Z,10.03
2019-02-25T21:34:15.254Z,9.47
2019-02-25T21:36:43.175Z,9.37
2019-02-25T21:39:14.717Z,9.20
2019-02-25T21:41:46.116Z,9.60
2019-02-25T21:44:18.871Z,9.13
2019-02-25T21:46:51.843Z,8.97
2019-02-25T21:49:24.902Z,9.20
2019-02-25T21:51:53.397Z,9.68
2019-02-25T21:54:23.969Z,9.80
2019-02-25T21:56:54.684Z,10.47
2019-02-25T21:59:25.160Z,9.40
2019-02-25T22:01:57.750Z,10.33
2019-02-25T22:04:27.989Z,8.50
2019-02-25T22:07:00.177Z,9.17
2019-02-25T22:09:39.090Z,10.57
2019-02-25T22:12:02.991Z,10.27
2019-02-25T22:14:33.467Z,10.57
2019-02-25T22:17:03.979Z,11.33
2019-02-25T22:19:35.034Z,10.67
2019-02-25T22:22:07.171Z,10.80
2019-02-25T22:24:38.771Z,9.70
2019-02-25T22:27:11.816Z,9.10
2019-02-25T22:29:43.145Z,9.23
2019-02-25T22:32:14.303Z,9.07
2019-02-25T22:34:44.886Z,9.30
2019-02-25T22:37:17.489Z,9.77
2019-02-25T22:39:48.261Z,11.07
2019-02-25T22:42:19.776Z,9.97
2019-02-25T22:44:51.705Z,10.33
2019-02-25T22:47:23.090Z,9.53
2019-02-25T22:49:53.698Z,10.37
2019-02-25T22:52:26.277Z,10.90
2019-02-25T22:54:56.426Z,11.13
2019-02-25T22:57:27.870Z,10.63
2019-02-25T22:59:59.122Z,11.53
2019-02-25T23:02:29.570Z,10.60
2019-02-25T23:05:00.109Z,9.27
2019-02-25T23:07:30.592Z,10.40
2019-02-25T23:10:01.029Z,9.60
2019-02-25T23:12:31.609Z,8.93
2019-02-25T23:15:05.500Z,9.97
2019-02-25T23:17:35.712Z,11.40
2019-02-25T23:20:09.387Z,10.50
2019-02-25T23:22:39.922Z,10.30
2019-02-25T23:25:10.946Z,11.73
2019-02-25T23:27:41.441Z,11.73
2019-02-25T23:30:11.917Z,11.97
2019-02-25T23:32:42.389Z,10.70
2019-02-25T23:35:15.610Z,11.80
2019-02-25T23:37:47.458Z,11.13
2019-02-25T23:40:17.431Z,12.80
2019-02-25T23:42:49.111Z,11.30
2019-02-25T23:45:21.235Z,11.27
2019-02-25T23:47:55.224Z,11.43
2019-02-25T23:50:25.722Z,11.40
2019-02-25T23:52:56.283Z,11.80
2019-02-25T23:55:27.951Z,12.00
2019-02-25T23:57:58.930Z,10.50
